Time;durP1;ratioP1;P1;durP2;ratioP2;P2;SDS_P1;SDS_P2;PMS_P1;PMS_P2;Temp;Humidity;BMP_temperature;BMP_pressure;BME280_temperature;BME280_humidity;BME280_pressure;Samples;Min_cycle;Max_cycle;Signal;HPM_P1;HPM_P2
2023/08/14 00:00:21;;;;;;;9.82;3.80;;;16.20;99.90;;;;;;5026166;28;20546;-60
2023/08/14 00:02:47;;;;;;;10.07;3.40;;;16.10;99.90;;;;;;5031410;28;20099;-59
2023/08/14 00:05:12;;;;;;;8.75;3.50;;;16.10;99.90;;;;;;5027433;28;20407;-60
2023/08/14 00:07:38;;;;;;;10.57;3.38;;;16.10;99.90;;;;;;5028471;28;20037;-60
2023/08/14 00:10:03;;;;;;;11.05;3.45;;;16.10;99.90;;;;;;5030038;28;20033;-60
2023/08/14 00:12:29;;;;;;;18.08;4.55;;;16.10;99.90;;;;;;5029436;28;20029;-60
2023/08/14 00:14:54;;;;;;;12.70;3.72;;;16.10;99.90;;;;;;5024830;28;20052;-60
2023/08/14 00:17:20;;;;;;;13.52;3.13;;;16.10;99.90;;;;;;5027169;28;20033;-58
2023/08/14 00:19:45;;;;;;;12.30;3.90;;;16.10;99.90;;;;;;5025878;28;20021;-59
2023/08/14 00:22:11;;;;;;;12.75;3.83;;;16.10;99.90;;;;;;5028649;28;20505;-59
2023/08/14 00:24:37;;;;;;;7.38;3.70;;;16.10;99.90;;;;;;5030512;28;20045;-60
2023/08/14 00:27:03;;;;;;;9.70;4.38;;;16.10;99.90;;;;;;5029905;28;20076;-60
2023/08/14 00:29:28;;;;;;;10.25;4.25;;;16.20;99.90;;;;;;5026167;28;20029;-60
2023/08/14 00:31:54;;;;;;;15.40;4.90;;;16.20;99.90;;;;;;5027680;28;20017;-60
2023/08/14 00:34:19;;;;;;;9.95;4.50;;;16.10;99.90;;;;;;5026063;28;20095;-60
2023/08/14 00:36:45;;;;;;;12.60;4.35;;;16.10;99.90;;;;;;5030052;28;20030;-60
2023/08/14 00:39:11;;;;;;;9.75;4.00;;;16.10;99.90;;;;;;5028938;28;20037;-59
2023/08/14 00:41:37;;;;;;;12.88;4.32;;;16.10;99.90;;;;;;5027291;28;20044;-58
2023/08/14 00:44:03;;;;;;;9.95;4.18;;;16.10;99.90;;;;;;5025650;28;20687;-60
2023/08/14 00:46:30;;;;;;;14.30;4.32;;;16.20;99.90;;;;;;5024823;28;20058;-59
2023/08/14 00:48:55;;;;;;;10.00;3.55;;;16.20;99.90;;;;;;5028529;28;20025;-60
2023/08/14 00:51:23;;;;;;;11.98;4.03;;;16.20;99.90;;;;;;5023379;28;20557;-60
2023/08/14 00:53:50;;;;;;;8.57;3.50;;;16.20;99.90;;;;;;5024088;28;20408;-60
2023/08/14 00:56:16;;;;;;;13.52;3.58;;;16.20;99.90;;;;;;5023827;28;20568;-59
2023/08/14 00:58:42;;;;;;;10.70;3.63;;;16.20;99.90;;;;;;5026487;28;20029;-59
2023/08/14 01:01:07;;;;;;;10.20;3.38;;;16.20;99.90;;;;;;5027379;28;20033;-57
2023/08/14 01:03:36;;;;;;;11.85;3.25;;;16.20;99.90;;;;;;5027636;28;20024;-60
2023/08/14 01:06:01;;;;;;;10.80;3.65;;;16.20;99.90;;;;;;5026135;28;20040;-59
2023/08/14 01:08:28;;;;;;;8.75;3.33;;;16.10;99.90;;;;;;5023259;28;20034;-58
2023/08/14 01:11:08;;;;;;;8.07;2.90;;;16.10;99.90;;;;;;5029247;28;20498;-58
2023/08/14 01:13:33;;;;;;;10.52;3.47;;;16.10;99.90;;;;;;5029529;28;20061;-59
2023/08/14 01:16:05;;;;;;;7.93;3.90;;;16.00;99.90;;;;;;5024709;28;20080;-59
2023/08/14 01:18:33;;;;;;;9.38;3.35;;;16.00;99.90;;;;;;5028772;28;20596;-59
2023/08/14 01:21:16;;;;;;;17.45;3.92;;;15.90;99.90;;;;;;5029258;28;20045;-59
2023/08/14 01:23:47;;;;;;;15.85;3.53;;;15.90;99.90;;;;;;5023259;28;20442;-58
2023/08/14 01:26:12;;;;;;;10.40;3.63;;;15.90;99.90;;;;;;5025472;28;20060;-59
2023/08/14 01:28:38;;;;;;;14.10;3.88;;;15.90;99.90;;;;;;5044085;28;20057;-58
2023/08/14 01:31:04;;;;;;;13.57;3.90;;;15.90;99.90;;;;;;5030217;28;20030;-58
2023/08/14 01:33:29;;;;;;;15.40;3.65;;;15.90;99.90;;;;;;5030234;28;20026;-59
2023/08/14 01:36:06;;;;;;;9.18;3.47;;;15.80;99.90;;;;;;5034413;28;20072;-59
2023/08/14 01:38:55;;;;;;;10.45;3.60;;;15.80;99.90;;;;;;5042262;28;20041;-59
2023/08/14 01:41:30;;;;;;;10.75;3.75;;;15.70;99.90;;;;;;5043366;28;20036;-59
2023/08/14 01:43:59;;;;;;;12.70;3.45;;;15.70;99.90;;;;;;5043917;28;20021;-60
2023/08/14 01:46:26;;;;;;;11.68;3.70;;;15.60;99.90;;;;;;5039966;28;20030;-60
2023/08/14 01:48:54;;;;;;;11.95;4.18;;;15.60;99.90;;;;;;5042261;28;20111;-59
2023/08/14 01:51:20;;;;;;;8.02;3.40;;;15.50;99.90;;;;;;5036313;28;20101;-60
2023/08/14 01:53:46;;;;;;;15.32;4.00;;;15.50;99.90;;;;;;5031475;28;20025;-60
2023/08/14 01:56:12;;;;;;;14.98;3.97;;;15.40;99.90;;;;;;5031676;28;20040;-61
2023/08/14 01:58:38;;;;;;;11.70;3.75;;;15.40;99.90;;;;;;5032912;28;20033;-60
2023/08/14 02:01:03;;;;;;;16.10;3.88;;;15.40;99.90;;;;;;5030391;28;20025;-59
2023/08/14 02:03:29;;;;;;;14.75;4.68;;;15.30;99.90;;;;;;5031291;28;20792;-60
2023/08/14 02:05:55;;;;;;;15.77;4.50;;;15.30;99.90;;;;;;5029375;28;20544;-60
2023/08/14 02:08:21;;;;;;;11.90;4.28;;;15.30;99.90;;;;;;5032224;28;20061;-60
2023/08/14 02:10:46;;;;;;;13.02;4.30;;;15.30;99.90;;;;;;5030308;28;20108;-60
2023/08/14 02:13:12;;;;;;;11.70;4.55;;;15.20;99.90;;;;;;5032037;28;20477;-60
2023/08/14 02:15:38;;;;;;;9.27;4.03;;;15.20;99.90;;;;;;5028332;28;20034;-58
2023/08/14 02:18:04;;;;;;;24.27;4.18;;;15.20;99.90;;;;;;5030892;28;20057;-60
2023/08/14 02:20:29;;;;;;;12.65;4.07;;;15.20;99.90;;;;;;5029940;28;20507;-60
2023/08/14 02:22:55;;;;;;;11.70;4.22;;;15.20;99.90;;;;;;5033045;28;20029;-59
2023/08/14 02:25:20;;;;;;;10.18;3.95;;;15.10;99.90;;;;;;5027634;28;20065;-59
2023/08/14 02:27:46;;;;;;;10.27;4.40;;;15.10;99.90;;;;;;5029901;28;20029;-59
2023/08/14 02:30:12;;;;;;;17.08;4.22;;;15.10;99.90;;;;;;5028799;28;20064;-58
2023/08/14 02:32:37;;;;;;;18.60;4.50;;;15.00;99.90;;;;;;5028042;28;20029;-60
2023/08/14 02:35:03;;;;;;;14.05;4.57;;;15.00;99.90;;;;;;5030283;28;20108;-60
2023/08/14 02:37:29;;;;;;;17.77;4.88;;;15.00;99.90;;;;;;5030462;28;20181;-59
2023/08/14 02:39:54;;;;;;;13.93;4.65;;;15.00;99.90;;;;;;5029515;28;20504;-60
2023/08/14 02:42:20;;;;;;;12.95;4.43;;;14.90;99.90;;;;;;5029984;28;20108;-60
2023/08/14 02:44:46;;;;;;;12.93;4.20;;;14.90;99.90;;;;;;5030808;28;20056;-60
2023/08/14 02:47:12;;;;;;;17.60;5.07;;;14.80;99.90;;;;;;5030474;28;20025;-60
2023/08/14 02:49:37;;;;;;;17.52;4.97;;;14.80;99.90;;;;;;5029814;28;20551;-59
2023/08/14 02:52:03;;;;;;;17.83;4.30;;;14.80;99.90;;;;;;5028236;28;20026;-60
2023/08/14 02:54:29;;;;;;;11.73;4.53;;;14.70;99.90;;;;;;5031096;28;20026;-58
2023/08/14 02:56:54;;;;;;;14.18;4.55;;;14.70;99.90;;;;;;5029955;28;20029;-59
2023/08/14 02:59:20;;;;;;;15.77;5.82;;;14.80;99.90;;;;;;5030912;28;20033;-60
2023/08/14 03:01:46;;;;;;;9.27;4.95;;;14.80;99.90;;;;;;5030055;28;20082;-55
2023/08/14 03:04:13;;;;;;;17.23;6.10;;;14.70;99.90;;;;;;5031935;28;20037;-59
2023/08/14 03:06:38;;;;;;;25.00;7.53;;;14.70;99.90;;;;;;5028048;28;20022;-58
2023/08/14 03:09:05;;;;;;;15.75;5.25;;;14.80;99.90;;;;;;5029918;28;20033;-58
2023/08/14 03:11:30;;;;;;;12.00;6.40;;;14.70;99.90;;;;;;5029784;28;20495;-55
2023/08/14 03:13:56;;;;;;;11.20;5.60;;;14.70;99.90;;;;;;5032368;28;20021;-59
2023/08/14 03:16:21;;;;;;;9.07;4.72;;;14.70;99.90;;;;;;5027693;28;20485;-57
2023/08/14 03:18:47;;;;;;;13.55;5.68;;;14.70;99.90;;;;;;5024297;28;20164;-57
2023/08/14 03:21:12;;;;;;;13.40;5.20;;;14.70;99.90;;;;;;5031099;28;20404;-59
2023/08/14 03:23:38;;;;;;;16.15;5.30;;;14.70;99.90;;;;;;5029610;28;20021;-59
2023/08/14 03:26:05;;;;;;;10.20;4.20;;;14.60;99.90;;;;;;5029739;28;20037;-59
2023/08/14 03:28:31;;;;;;;12.50;5.10;;;14.60;99.90;;;;;;5030651;28;20037;-59
2023/08/14 03:30:57;;;;;;;14.43;4.93;;;14.60;99.90;;;;;;5029066;28;20021;-57
2023/08/14 03:33:23;;;;;;;11.23;4.85;;;14.50;99.90;;;;;;5031432;28;20148;-60
2023/08/14 03:35:52;;;;;;;12.13;5.60;;;14.50;99.90;;;;;;5028881;28;20021;-59
2023/08/14 03:38:17;;;;;;;13.20;4.82;;;14.50;99.90;;;;;;5027537;28;20040;-59
2023/08/14 03:40:43;;;;;;;11.20;5.00;;;14.40;99.90;;;;;;5028989;28;20033;-60
2023/08/14 03:43:09;;;;;;;20.08;5.93;;;14.50;99.90;;;;;;5030563;28;20039;-60
2023/08/14 03:45:34;;;;;;;7.75;5.63;;;14.50;99.90;;;;;;5029459;28;20064;-59
2023/08/14 03:48:00;;;;;;;16.85;5.75;;;14.50;99.90;;;;;;5029502;28;20065;-59
2023/08/14 03:50:25;;;;;;;11.55;5.70;;;14.40;99.90;;;;;;5028549;28;20108;-58
2023/08/14 03:52:51;;;;;;;7.10;4.60;;;14.40;99.90;;;;;;5029439;28;20079;-59
2023/08/14 03:55:16;;;;;;;11.43;5.00;;;14.40;99.90;;;;;;5028194;28;20030;-60
2023/08/14 03:57:42;;;;;;;18.90;5.95;;;14.40;99.90;;;;;;5030907;28;20021;-60
2023/08/14 04:00:08;;;;;;;22.80;5.40;;;14.30;99.90;;;;;;5029735;28;20408;-60
2023/08/14 04:02:33;;;;;;;14.30;5.18;;;14.30;99.90;;;;;;5027788;28;20026;-60
2023/08/14 04:04:59;;;;;;;11.65;4.88;;;14.30;99.90;;;;;;5030604;28;20104;-60
2023/08/14 04:07:24;;;;;;;16.15;4.80;;;14.30;99.90;;;;;;5028820;28;20447;-58
2023/08/14 04:09:50;;;;;;;9.75;5.55;;;14.20;99.90;;;;;;5027440;28;20025;-60
2023/08/14 04:12:16;;;;;;;10.43;5.07;;;14.20;99.90;;;;;;5026773;28;20033;-60
2023/08/14 04:14:41;;;;;;;12.10;5.45;;;14.20;99.90;;;;;;5026705;28;20370;-59
2023/08/14 04:17:07;;;;;;;14.40;5.47;;;14.10;99.90;;;;;;5026661;28;20052;-58
2023/08/14 04:19:32;;;;;;;17.50;6.53;;;14.10;99.90;;;;;;5020753;28;20496;-60
2023/08/14 04:21:58;;;;;;;15.65;5.10;;;14.10;99.90;;;;;;5028065;28;20044;-59
2023/08/14 04:24:23;;;;;;;17.90;6.20;;;14.10;99.90;;;;;;5027751;28;20112;-60
2023/08/14 04:26:49;;;;;;;14.50;6.03;;;14.10;99.90;;;;;;5028763;28;20025;-60
2023/08/14 04:29:16;;;;;;;14.38;6.03;;;14.10;99.90;;;;;;5019862;28;20520;-60
2023/08/14 04:31:41;;;;;;;11.55;5.53;;;14.10;99.90;;;;;;5023936;28;20128;-60
2023/08/14 04:34:09;;;;;;;20.50;5.70;;;14.10;99.90;;;;;;5026684;28;20156;-60
2023/08/14 04:36:36;;;;;;;18.77;6.43;;;14.10;99.90;;;;;;5024808;28;20026;-59
2023/08/14 04:39:07;;;;;;;20.80;6.35;;;14.10;99.90;;;;;;5027258;28;20033;-52
2023/08/14 04:41:33;;;;;;;9.75;5.75;;;14.20;99.90;;;;;;5026331;28;20052;-54
2023/08/14 04:43:58;;;;;;;17.00;5.80;;;14.20;99.90;;;;;;5028429;28;20497;-54
2023/08/14 04:46:47;;;;;;;10.77;5.55;;;14.20;99.90;;;;;;5022215;28;20084;-55
2023/08/14 04:49:13;;;;;;;13.07;5.47;;;14.30;99.90;;;;;;5022459;28;20026;-53
2023/08/14 04:51:38;;;;;;;10.77;5.68;;;14.30;99.90;;;;;;5022005;28;20082;-54
2023/08/14 04:54:04;;;;;;;9.82;5.43;;;14.30;99.90;;;;;;5027509;28;20018;-54
2023/08/14 04:56:31;;;;;;;18.17;5.97;;;14.30;99.90;;;;;;5029325;28;20037;-53
2023/08/14 04:58:56;;;;;;;23.92;6.38;;;14.40;99.90;;;;;;5024355;28;20029;-55
2023/08/14 05:01:22;;;;;;;9.23;4.70;;;14.50;99.90;;;;;;5020283;28;20040;-54
2023/08/14 05:03:47;;;;;;;12.50;5.63;;;14.50;99.90;;;;;;5025881;28;20404;-57
2023/08/14 05:06:13;;;;;;;11.30;5.03;;;14.50;99.90;;;;;;5022722;28;20088;-56
2023/08/14 05:08:38;;;;;;;9.65;5.15;;;14.50;99.90;;;;;;5025104;28;20049;-56
2023/08/14 05:11:05;;;;;;;9.55;5.25;;;14.50;99.90;;;;;;5024032;28;20388;-53
2023/08/14 05:13:31;;;;;;;10.93;5.20;;;14.60;99.90;;;;;;5027284;28;20564;-54
2023/08/14 05:15:56;;;;;;;13.05;5.20;;;14.60;99.90;;;;;;5028656;28;20108;-56
2023/08/14 05:18:22;;;;;;;9.30;5.43;;;14.60;99.90;;;;;;5025504;28;20037;-54
2023/08/14 05:20:48;;;;;;;16.30;5.63;;;14.70;99.90;;;;;;5028760;28;20052;-55
2023/08/14 05:23:15;;;;;;;16.80;7.97;;;14.70;99.90;;;;;;5024068;28;20409;-50
2023/08/14 05:25:44;;;;;;;13.98;5.10;;;14.80;99.90;;;;;;5024473;28;20075;-53
2023/08/14 05:28:10;;;;;;;13.15;5.47;;;14.80;99.90;;;;;;5027403;28;20025;-55
2023/08/14 05:30:36;;;;;;;11.88;6.00;;;14.80;99.90;;;;;;5027590;28;20030;-51
2023/08/14 05:33:03;;;;;;;20.33;5.80;;;14.90;99.90;;;;;;5026671;28;20029;-52
2023/08/14 05:35:29;;;;;;;10.98;4.97;;;14.90;99.90;;;;;;5025801;28;20417;-55
2023/08/14 05:37:56;;;;;;;24.45;6.03;;;15.00;99.90;;;;;;5025483;28;20025;-55
2023/08/14 05:40:22;;;;;;;7.97;4.80;;;15.10;99.90;;;;;;5027213;28;20041;-53
2023/08/14 05:43:07;;;;;;;11.18;5.70;;;15.20;99.90;;;;;;5025591;28;20026;-56
2023/08/14 05:45:34;;;;;;;16.27;5.18;;;15.30;99.90;;;;;;5029634;28;20567;-52
2023/08/14 05:48:04;;;;;;;15.82;6.70;;;15.40;99.90;;;;;;5022432;28;20481;-56
2023/08/14 05:50:30;;;;;;;14.48;5.95;;;15.50;99.90;;;;;;5024541;28;20504;-55
2023/08/14 05:52:56;;;;;;;14.32;5.82;;;15.60;99.90;;;;;;5021681;28;20022;-57
2023/08/14 05:55:23;;;;;;;16.35;5.90;;;15.70;99.90;;;;;;5029996;28;20107;-52
2023/08/14 05:57:48;;;;;;;11.32;6.20;;;15.80;99.90;;;;;;5026818;28;20068;-55
2023/08/14 06:00:15;;;;;;;14.98;6.38;;;16.00;99.90;;;;;;5025679;28;20061;-56
2023/08/14 06:02:41;;;;;;;14.13;6.32;;;16.10;99.90;;;;;;5028100;28;20025;-55
2023/08/14 06:05:08;;;;;;;16.45;6.07;;;16.30;99.90;;;;;;5029147;28;20029;-53
2023/08/14 06:07:34;;;;;;;11.55;6.10;;;16.40;99.90;;;;;;5028808;28;20033;-55
2023/08/14 06:09:59;;;;;;;14.77;6.00;;;16.50;99.90;;;;;;5030130;28;20397;-52
2023/08/14 06:12:25;;;;;;;14.65;6.00;;;16.60;99.90;;;;;;5029313;28;20033;-53
2023/08/14 06:14:50;;;;;;;8.95;5.35;;;16.70;99.90;;;;;;5027021;28;20105;-56
2023/08/14 06:17:16;;;;;;;11.73;6.35;;;16.80;99.90;;;;;;5027079;28;20041;-52
2023/08/14 06:19:41;;;;;;;9.52;5.03;;;16.90;99.90;;;;;;5024523;28;20048;-56
2023/08/14 06:22:07;;;;;;;14.95;5.00;;;16.90;99.90;;;;;;5026826;28;20030;-56
2023/08/14 06:24:32;;;;;;;10.88;4.85;;;17.00;99.90;;;;;;5031043;28;20095;-52
2023/08/14 06:26:58;;;;;;;9.55;5.15;;;17.20;99.90;;;;;;5029858;28;20036;-55
2023/08/14 06:29:24;;;;;;;15.25;4.95;;;17.20;99.90;;;;;;5030275;28;20040;-55
2023/08/14 06:31:49;;;;;;;17.90;5.35;;;17.30;99.90;;;;;;5026723;28;20476;-56
2023/08/14 06:34:15;;;;;;;17.20;6.13;;;17.40;99.90;;;;;;5025640;28;20025;-53
2023/08/14 06:36:40;;;;;;;13.50;4.65;;;17.40;99.90;;;;;;5021979;28;20033;-55
2023/08/14 06:39:06;;;;;;;15.95;5.05;;;17.50;99.90;;;;;;5044541;28;20032;-56
2023/08/14 06:41:31;;;;;;;13.88;4.18;;;17.50;99.90;;;;;;5030589;28;20513;-54
2023/08/14 06:43:57;;;;;;;13.55;4.47;;;17.60;99.90;;;;;;5027442;28;20099;-52
2023/08/14 06:46:23;;;;;;;9.50;4.60;;;17.70;99.90;;;;;;5025137;28;20029;-56
2023/08/14 06:48:48;;;;;;;9.77;4.50;;;17.80;99.90;;;;;;5026609;28;20405;-56
2023/08/14 06:51:14;;;;;;;16.00;4.65;;;17.90;99.90;;;;;;5026953;28;20429;-55
2023/08/14 06:53:39;;;;;;;10.20;3.75;;;18.00;99.90;;;;;;5030491;28;20662;-52
2023/08/14 06:56:05;;;;;;;11.00;4.13;;;18.10;99.90;;;;;;5030625;28;20392;-53
2023/08/14 06:58:30;;;;;;;7.15;3.70;;;18.20;99.90;;;;;;5028372;28;20468;-56
2023/08/14 07:00:56;;;;;;;11.20;3.90;;;18.20;99.90;;;;;;5022795;28;20501;-51
2023/08/14 07:03:21;;;;;;;7.35;3.17;;;18.40;99.90;;;;;;5027350;28;20579;-55
2023/08/14 07:05:47;;;;;;;10.77;3.60;;;18.40;99.90;;;;;;5026142;28;20033;-56
2023/08/14 07:08:13;;;;;;;11.05;3.63;;;18.50;99.90;;;;;;5024750;28;20025;-55
2023/08/14 07:10:38;;;;;;;18.48;4.28;;;18.60;99.90;;;;;;5028138;28;20033;-53
2023/08/14 07:13:06;;;;;;;18.63;4.10;;;18.70;99.90;;;;;;5031394;28;20029;-53
2023/08/14 07:15:32;;;;;;;16.58;4.10;;;18.70;99.90;;;;;;5029665;28;20026;-53
2023/08/14 07:17:57;;;;;;;9.55;3.88;;;18.70;99.90;;;;;;5028639;28;20720;-52
2023/08/14 07:20:23;;;;;;;12.85;3.60;;;18.80;99.90;;;;;;5025329;28;20033;-57
2023/08/14 07:22:48;;;;;;;10.95;3.35;;;18.80;99.90;;;;;;5027552;28;20029;-57
2023/08/14 07:25:14;;;;;;;12.15;4.35;;;18.90;99.90;;;;;;5039814;28;20052;-56
2023/08/14 07:27:39;;;;;;;8.45;3.38;;;18.80;99.90;;;;;;5030493;28;20087;-52
2023/08/14 07:30:06;;;;;;;8.45;3.35;;;18.90;99.90;;;;;;5029355;28;20033;-53
2023/08/14 07:32:31;;;;;;;8.70;3.38;;;18.90;99.90;;;;;;5030058;28;20018;-52
2023/08/14 07:34:57;;;;;;;10.35;3.95;;;18.90;99.90;;;;;;5026954;28;20044;-55
2023/08/14 07:37:23;;;;;;;10.27;3.65;;;18.90;99.90;;;;;;5028677;28;20033;-52
2023/08/14 07:39:48;;;;;;;15.90;4.10;;;19.00;99.90;;;;;;5025179;28;20072;-53
2023/08/14 07:42:14;;;;;;;9.70;3.58;;;19.10;99.90;;;;;;5027891;28;20083;-53
2023/08/14 07:44:40;;;;;;;5.93;3.55;;;19.10;99.90;;;;;;5028688;28;20048;-53
2023/08/14 07:47:05;;;;;;;14.68;3.53;;;19.20;99.90;;;;;;5029641;28;20033;-55
2023/08/14 07:49:34;;;;;;;7.53;3.55;;;19.20;99.90;;;;;;5029177;28;20041;-55
2023/08/14 07:52:00;;;;;;;10.20;3.38;;;19.30;99.90;;;;;;5028913;28;20029;-55
2023/08/14 07:54:26;;;;;;;6.47;3.40;;;19.30;99.90;;;;;;5028377;28;20033;-55
2023/08/14 07:56:53;;;;;;;11.95;3.20;;;19.40;99.90;;;;;;5029108;28;20037;-54
2023/08/14 07:59:19;;;;;;;19.48;10.70;;;19.40;99.90;;;;;;5027583;28;20400;-56
2023/08/14 08:01:45;;;;;;;6.22;2.78;;;19.50;99.90;;;;;;5027849;28;20025;-54
2023/08/14 08:04:10;;;;;;;9.52;3.80;;;19.40;99.90;;;;;;5030416;28;20476;-55
2023/08/14 08:06:36;;;;;;;7.80;2.80;;;19.30;99.90;;;;;;5025939;28;20416;-54
2023/08/14 08:09:02;;;;;;;7.25;3.15;;;19.30;99.90;;;;;;5024456;28;20117;-55
2023/08/14 08:11:28;;;;;;;8.80;3.55;;;19.30;99.90;;;;;;5029133;28;20029;-54
2023/08/14 08:13:54;;;;;;;8.30;3.08;;;19.30;99.90;;;;;;5029066;28;20017;-55
2023/08/14 08:16:19;;;;;;;10.95;2.92;;;19.40;99.90;;;;;;5027760;28;20507;-54
2023/08/14 08:18:45;;;;;;;11.60;3.35;;;19.40;99.90;;;;;;5024551;28;20504;-52
2023/08/14 08:21:10;;;;;;;9.88;3.85;;;19.50;99.90;;;;;;5027333;28;20508;-52
2023/08/14 08:23:36;;;;;;;11.40;3.42;;;19.60;99.90;;;;;;5020899;28;20022;-52
2023/08/14 08:26:01;;;;;;;9.93;2.53;;;19.70;99.90;;;;;;5027078;28;20026;-55
2023/08/14 08:28:27;;;;;;;9.43;2.85;;;19.80;99.90;;;;;;5025380;28;20033;-54
2023/08/14 08:30:52;;;;;;;4.50;2.75;;;19.90;99.90;;;;;;5028266;28;20034;-54
2023/08/14 08:33:18;;;;;;;7.28;2.30;;;20.00;99.90;;;;;;5026022;28;20032;-54
2023/08/14 08:35:44;;;;;;;8.70;2.63;;;20.10;99.90;;;;;;5027338;28;20030;-54
2023/08/14 08:38:10;;;;;;;10.20;3.67;;;20.20;99.90;;;;;;5035528;28;20159;-57
2023/08/14 08:40:36;;;;;;;5.68;2.35;;;20.40;99.90;;;;;;5029626;28;20061;-55
2023/08/14 08:43:02;;;;;;;9.07;3.17;;;20.50;99.90;;;;;;5025672;28;20108;-55
2023/08/14 08:45:34;;;;;;;7.55;2.47;;;20.60;99.90;;;;;;5027133;28;20103;-53
2023/08/14 08:48:01;;;;;;;6.78;2.55;;;20.70;99.90;;;;;;5027925;28;20229;-54
2023/08/14 08:50:30;;;;;;;9.57;2.55;;;20.90;99.90;;;;;;5027569;28;20037;-55
2023/08/14 08:52:57;;;;;;;8.45;2.35;;;21.00;99.90;;;;;;5026590;28;20033;-55
2023/08/14 08:55:23;;;;;;;7.93;2.30;;;21.10;99.90;;;;;;5028247;28;20029;-53
2023/08/14 08:57:49;;;;;;;7.00;2.58;;;21.20;99.90;;;;;;5028771;28;20037;-55
2023/08/14 09:00:15;;;;;;;12.68;6.15;;;21.30;99.90;;;;;;5026019;28;20040;-55
2023/08/14 09:02:41;;;;;;;10.43;2.30;;;21.40;99.90;;;;;;5021717;28;20037;-56
2023/08/14 09:05:07;;;;;;;6.20;2.30;;;21.50;99.90;;;;;;5027871;28;20033;-53
2023/08/14 09:07:33;;;;;;;6.53;2.38;;;21.50;99.90;;;;;;5024408;28;20030;-56
2023/08/14 09:10:00;;;;;;;5.28;2.30;;;21.50;99.90;;;;;;5028657;28;20030;-52
2023/08/14 09:12:25;;;;;;;9.40;2.63;;;21.50;99.90;;;;;;5027679;28;20025;-54
2023/08/14 09:15:06;;;;;;;8.25;2.33;;;21.50;99.90;;;;;;5028900;28;20032;-53
2023/08/14 09:17:32;;;;;;;8.02;2.55;;;21.50;99.90;;;;;;5026579;28;20025;-56
2023/08/14 09:19:58;;;;;;;9.80;2.58;;;21.60;99.90;;;;;;5027576;28;20022;-54
2023/08/14 09:22:27;;;;;;;8.48;2.53;;;21.70;99.90;;;;;;5026025;28;20128;-53
2023/08/14 09:24:53;;;;;;;11.25;2.60;;;21.80;99.90;;;;;;5026987;28;20068;-53
2023/08/14 09:27:19;;;;;;;10.77;2.80;;;22.00;99.90;;;;;;5025726;28;20060;-55
2023/08/14 09:29:45;;;;;;;9.13;2.60;;;22.00;99.90;;;;;;5028541;28;20041;-54
2023/08/14 09:32:11;;;;;;;7.95;2.55;;;22.10;99.90;;;;;;5027175;28;20550;-56
2023/08/14 09:34:37;;;;;;;6.40;2.70;;;22.20;99.90;;;;;;5027305;28;20021;-51
2023/08/14 09:37:04;;;;;;;8.40;2.55;;;22.20;99.90;;;;;;5021062;28;20056;-54
2023/08/14 09:39:30;;;;;;;13.20;2.58;;;22.30;99.90;;;;;;5025043;28;20030;-55
2023/08/14 09:41:55;;;;;;;7.85;2.40;;;22.30;99.90;;;;;;5025667;28;20448;-53
2023/08/14 09:44:23;;;;;;;10.55;3.22;;;22.30;99.90;;;;;;5025040;28;20030;-55
2023/08/14 09:46:51;;;;;;;7.88;2.80;;;22.20;99.90;;;;;;5027737;28;20084;-53
2023/08/14 09:49:17;;;;;;;7.15;2.17;;;22.10;99.90;;;;;;5027013;28;20735;-52
2023/08/14 09:51:55;;;;;;;6.22;2.45;;;22.30;99.90;;;;;;5025995;28;20017;-52
2023/08/14 09:54:33;;;;;;;6.82;2.10;;;22.60;99.90;;;;;;5023974;28;20044;-53
2023/08/14 09:56:59;;;;;;;7.07;2.70;;;22.70;99.90;;;;;;5029605;28;20393;-54
2023/08/14 09:59:28;;;;;;;8.40;2.50;;;22.80;99.90;;;;;;5024580;28;20100;-52
2023/08/14 10:01:56;;;;;;;8.43;2.30;;;22.80;99.90;;;;;;5026350;28;20679;-55
2023/08/14 10:04:23;;;;;;;6.07;2.42;;;22.80;99.90;;;;;;5025425;28;20121;-57
2023/08/14 10:06:51;;;;;;;10.88;2.75;;;22.90;99.90;;;;;;5026378;28;20032;-54
2023/08/14 10:09:20;;;;;;;9.55;2.88;;;23.30;99.90;;;;;;5026331;28;20026;-56
2023/08/14 10:11:47;;;;;;;9.25;2.50;;;23.70;99.90;;;;;;5032177;28;20029;-53
2023/08/14 10:14:15;;;;;;;6.28;2.38;;;24.20;99.90;;;;;;5030113;28;20477;-55
2023/08/14 10:16:42;;;;;;;15.30;3.33;;;24.50;99.90;;;;;;5030954;28;20069;-52
2023/08/14 10:19:12;;;;;;;8.45;2.60;;;24.80;99.90;;;;;;5032329;28;20029;-55
2023/08/14 10:21:39;;;;;;;10.02;2.92;;;24.90;99.90;;;;;;5027925;28;20374;-57
2023/08/14 10:24:07;;;;;;;19.05;7.03;;;24.80;99.90;;;;;;5029562;28;20033;-53
2023/08/14 10:26:33;;;;;;;6.60;2.60;;;24.80;99.90;;;;;;5030405;28;20029;-53
2023/08/14 10:28:59;;;;;;;11.18;3.00;;;24.60;99.90;;;;;;5028269;28;20056;-52
2023/08/14 10:31:29;;;;;;;7.45;2.60;;;24.60;99.90;;;;;;5029868;28;20126;-52
2023/08/14 10:33:56;;;;;;;7.03;2.22;;;24.80;99.90;;;;;;5027700;28;20029;-55
2023/08/14 10:36:22;;;;;;;11.57;2.53;;;25.30;99.90;;;;;;5028805;28;20040;-54
2023/08/14 10:38:50;;;;;;;8.43;2.60;;;25.80;99.90;;;;;;5029967;28;20033;-54
2023/08/14 10:41:17;;;;;;;6.50;2.40;;;26.30;99.90;;;;;;5020131;28;20030;-53
2023/08/14 10:43:47;;;;;;;11.48;2.33;;;26.30;99.90;;;;;;5023457;28;20108;-55
2023/08/14 10:46:16;;;;;;;8.75;2.33;;;26.50;99.90;;;;;;5024395;28;20025;-57
2023/08/14 10:48:43;;;;;;;8.02;2.67;;;26.40;99.90;;;;;;5026963;28;20026;-55
2023/08/14 10:51:10;;;;;;;9.57;3.25;;;26.40;99.90;;;;;;5025042;28;20040;-55
2023/08/14 10:53:45;;;;;;;13.55;3.60;;;26.60;99.90;;;;;;5026061;28;20026;-54
2023/08/14 10:56:12;;;;;;;13.10;3.05;;;26.70;99.90;;;;;;5029497;28;20053;-53
2023/08/14 10:58:39;;;;;;;24.42;2.90;;;27.10;99.90;;;;;;5031136;28;20084;-55
2023/08/14 11:01:07;;;;;;;17.23;3.90;;;26.80;99.90;;;;;;5029769;28;20481;-53
2023/08/14 11:03:34;;;;;;;9.38;2.25;;;26.80;99.90;;;;;;5029070;28;20025;-52
2023/08/14 11:05:59;;;;;;;6.22;2.13;;;26.20;99.90;;;;;;5031151;28;20260;-53
2023/08/14 11:08:29;;;;;;;9.75;2.58;;;25.90;99.90;;;;;;5030573;28;20526;-55
2023/08/14 11:10:56;;;;;;;8.25;2.38;;;25.60;99.90;;;;;;5032434;28;20059;-54
2023/08/14 11:13:22;;;;;;;9.40;3.00;;;25.40;99.90;;;;;;5032033;28;20033;-55
2023/08/14 11:15:48;;;;;;;6.78;2.53;;;25.40;99.90;;;;;;5026848;28;20396;-54
2023/08/14 11:18:13;;;;;;;6.50;2.40;;;25.40;99.90;;;;;;5028954;28;20025;-53
2023/08/14 11:20:42;;;;;;;10.73;2.33;;;25.50;99.90;;;;;;5029934;28;20481;-54
2023/08/14 11:23:08;;;;;;;5.82;2.55;;;25.50;99.90;;;;;;5029845;28;20021;-54
2023/08/14 11:25:34;;;;;;;8.57;2.75;;;25.50;99.90;;;;;;5031311;28;20033;-54
2023/08/14 11:28:00;;;;;;;11.32;2.50;;;25.50;99.90;;;;;;5029657;28;20447;-54
2023/08/14 11:30:32;;;;;;;9.32;3.15;;;25.40;99.90;;;;;;5031893;28;20030;-52
2023/08/14 11:32:58;;;;;;;7.85;2.33;;;25.30;99.90;;;;;;5031437;28;20029;-53
2023/08/14 11:35:28;;;;;;;18.95;3.05;;;25.10;99.90;;;;;;5027472;28;20021;-52
2023/08/14 11:37:54;;;;;;;5.50;2.35;;;24.80;99.90;;;;;;5025659;28;20040;-52
2023/08/14 11:40:20;;;;;;;9.00;2.90;;;24.60;99.90;;;;;;5026416;28;20107;-54
2023/08/14 11:42:45;;;;;;;8.07;2.75;;;24.50;99.90;;;;;;5027743;28;20053;-53
2023/08/14 11:45:11;;;;;;;7.75;2.72;;;24.40;99.90;;;;;;5023938;28;20420;-55
2023/08/14 11:47:47;;;;;;;8.07;3.10;;;24.40;99.90;;;;;;5024750;28;20028;-52
2023/08/14 11:50:13;;;;;;;6.60;3.28;;;24.50;99.90;;;;;;5026584;28;20013;-53
2023/08/14 11:52:39;;;;;;;12.85;2.67;;;24.40;99.90;;;;;;5018019;28;20029;-55
2023/08/14 11:55:06;;;;;;;9.52;3.00;;;24.20;99.90;;;;;;5027708;28;20025;-54
2023/08/14 11:57:32;;;;;;;8.10;2.35;;;24.30;99.90;;;;;;5027945;28;20128;-54
2023/08/14 12:00:00;;;;;;;7.03;2.63;;;24.40;99.90;;;;;;5023066;28;20037;-55
2023/08/14 12:02:28;;;;;;;6.13;2.40;;;24.50;99.90;;;;;;5025608;28;20040;-55
2023/08/14 12:04:54;;;;;;;11.80;3.03;;;24.40;99.90;;;;;;5024090;28;20485;-53
2023/08/14 12:07:21;;;;;;;13.40;2.95;;;24.40;99.90;;;;;;5024191;28;20103;-56
2023/08/14 12:09:48;;;;;;;13.20;3.33;;;24.50;99.90;;;;;;5022176;28;20155;-55
2023/08/14 12:12:13;;;;;;;6.13;2.85;;;24.80;99.90;;;;;;5026774;28;20037;-55
2023/08/14 12:14:47;;;;;;;9.82;2.70;;;25.20;99.90;;;;;;5022716;28;20032;-55
2023/08/14 12:17:15;;;;;;;;;;;25.70;99.90;;;;;;5023085;28;20028;-56
2023/08/14 12:19:40;;;;;;;16.00;2.80;;;26.20;99.90;;;;;;5026563;28;20369;-54
2023/08/14 12:22:06;;;;;;;9.25;2.33;;;26.50;99.90;;;;;;5022815;28;20039;-56
2023/08/14 12:24:43;;;;;;;7.32;2.40;;;26.90;99.90;;;;;;5025556;28;20056;-54
2023/08/14 12:27:18;;;;;;;10.82;2.78;;;27.20;99.90;;;;;;5022150;28;20041;-54
2023/08/14 12:29:44;;;;;;;16.50;3.33;;;27.00;99.90;;;;;;5028507;28;20040;-54
2023/08/14 12:32:10;;;;;;;16.98;3.22;;;26.70;99.90;;;;;;5025682;28;20029;-54
2023/08/14 12:34:37;;;;;;;10.02;2.92;;;26.60;99.90;;;;;;5028388;28;20036;-54
2023/08/14 12:37:04;;;;;;;9.02;2.70;;;26.00;99.90;;;;;;5020916;28;20044;-56